createdAt,value
2022-10-18T00:00:58.809Z,18.56
2022-10-18T00:05:00.476Z,18.54
2022-10-18T00:09:02.033Z,18.56
2022-10-18T00:13:03.570Z,18.54
2022-10-18T00:17:05.162Z,18.56
2022-10-18T00:21:10.288Z,18.59
2022-10-18T00:25:12.164Z,18.56
2022-10-18T00:29:15.113Z,18.57
2022-10-18T00:33:16.922Z,18.49
2022-10-18T00:37:18.877Z,18.46
2022-10-18T00:41:25.925Z,18.39
2022-10-18T00:45:27.807Z,18.36
2022-10-18T00:49:56.364Z,18.34
2022-10-18T00:53:58.042Z,18.32
2022-10-18T00:58:00.797Z,18.32
2022-10-18T01:02:02.759Z,18.31
2022-10-18T01:06:04.483Z,18.32
2022-10-18T01:10:11.297Z,18.32
2022-10-18T01:14:31.238Z,18.31
2022-10-18T01:18:56.533Z,18.31
2022-10-18T01:23:24.148Z,18.28
2022-10-18T01:27:52.919Z,18.29
2022-10-18T01:32:01.140Z,18.28
2022-10-18T01:36:11.669Z,18.25
2022-10-18T01:40:15.780Z,18.23
2022-10-18T01:44:25.617Z,18.19
2022-10-18T01:48:29.426Z,18.13
2022-10-18T01:52:31.584Z,18.13
2022-10-18T01:56:42.365Z,18.13
2022-10-18T02:00:44.360Z,18.10
2022-10-18T02:05:19.764Z,18.10
2022-10-18T02:09:31.586Z,18.04
2022-10-18T02:13:41.729Z,17.99
2022-10-18T02:17:46.405Z,17.98
2022-10-18T02:21:49.900Z,17.99
2022-10-18T02:25:52.461Z,17.98
2022-10-18T02:29:54.374Z,17.98
2022-10-18T02:34:16.046Z,17.96
2022-10-18T02:38:19.296Z,17.94
2022-10-18T02:42:22.376Z,17.94
2022-10-18T02:46:23.976Z,17.91
2022-10-18T02:50:25.536Z,17.91
2022-10-18T02:54:27.022Z,17.89
2022-10-18T02:58:29.034Z,17.95
2022-10-18T03:02:30.560Z,17.95
2022-10-18T03:06:32.930Z,17.96
2022-10-18T03:10:34.465Z,17.96
2022-10-18T03:14:35.975Z,17.92
2022-10-18T03:18:37.490Z,17.89
2022-10-18T03:22:38.992Z,17.87
2022-10-18T03:26:40.535Z,17.84
2022-10-18T03:30:42.071Z,17.80
2022-10-18T03:34:43.599Z,17.77
2022-10-18T03:38:45.163Z,17.79
2022-10-18T03:42:46.737Z,17.83
2022-10-18T03:46:48.352Z,17.84
2022-10-18T03:50:49.931Z,17.86
2022-10-18T03:54:51.526Z,17.91
2022-10-18T03:58:53.033Z,17.94
2022-10-18T04:02:55.965Z,17.96
2022-10-18T04:06:57.697Z,17.99
2022-10-18T04:10:59.221Z,17.99
2022-10-18T04:15:00.776Z,18.02
2022-10-18T04:19:02.332Z,18.07
2022-10-18T04:23:03.795Z,18.04
2022-10-18T04:27:06.376Z,17.92
2022-10-18T04:31:07.916Z,17.83
2022-10-18T04:35:09.926Z,17.81
2022-10-18T04:39:11.572Z,17.80
2022-10-18T04:43:13.123Z,17.81
2022-10-18T04:47:14.975Z,17.81
2022-10-18T04:51:16.546Z,17.81
2022-10-18T04:55:18.088Z,17.83
2022-10-18T04:59:19.598Z,17.86
2022-10-18T05:03:21.184Z,17.83
2022-10-18T05:07:22.779Z,17.81
2022-10-18T05:11:24.329Z,17.83
2022-10-18T05:15:25.906Z,17.81
2022-10-18T05:19:27.418Z,17.80
2022-10-18T05:23:29.023Z,17.81
2022-10-18T05:27:30.609Z,17.81
2022-10-18T05:31:32.206Z,17.81
2022-10-18T05:35:34.351Z,17.80
2022-10-18T05:39:37.316Z,17.80
2022-10-18T05:43:39.571Z,17.83
2022-10-18T05:47:41.139Z,17.86
2022-10-18T05:51:42.621Z,17.81
2022-10-18T05:55:44.140Z,17.74
2022-10-18T05:59:46.030Z,17.70
2022-10-18T06:03:47.758Z,17.68
2022-10-18T06:07:49.307Z,17.63
2022-10-18T06:11:50.868Z,17.66
2022-10-18T06:15:56.341Z,17.70
2022-10-18T06:19:57.851Z,17.74
2022-10-18T06:23:59.697Z,17.74
2022-10-18T06:28:01.229Z,17.76
2022-10-18T06:32:03.089Z,17.77
2022-10-18T06:36:32.319Z,17.79
2022-10-18T06:40:38.020Z,17.80
2022-10-18T06:44:39.677Z,17.83
2022-10-18T06:48:41.311Z,17.87
2022-10-18T06:52:43.418Z,17.89
2022-10-18T06:56:45.006Z,17.94
2022-10-18T07:00:47.505Z,17.99
2022-10-18T07:04:49.022Z,18.05
2022-10-18T07:08:52.750Z,18.09
2022-10-18T07:13:07.973Z,18.05
2022-10-18T07:17:15.845Z,18.07
2022-10-18T07:21:20.543Z,18.05
2022-10-18T07:25:23.884Z,18.01
2022-10-18T07:29:28.099Z,17.99
2022-10-18T07:33:29.622Z,17.96
2022-10-18T07:37:31.802Z,17.91
2022-10-18T07:41:34.401Z,17.87
2022-10-18T07:49:42.628Z,18.09
2022-10-18T07:53:44.604Z,18.19
2022-10-18T07:57:46.170Z,18.21
2022-10-18T08:01:47.720Z,18.32
2022-10-18T08:05:54.067Z,18.39
2022-10-18T08:09:55.565Z,18.39
2022-10-18T08:13:57.102Z,18.39
2022-10-18T08:17:58.642Z,18.39
2022-10-18T08:22:00.173Z,18.44
2022-10-18T08:26:03.155Z,18.50
2022-10-18T08:30:04.985Z,18.54
2022-10-18T08:34:06.506Z,18.59
2022-10-18T08:38:16.400Z,18.68
2022-10-18T08:42:46.832Z,18.82
2022-10-18T08:46:51.771Z,18.93
2022-10-18T08:50:56.156Z,19.06
2022-10-18T08:55:04.069Z,19.16
2022-10-18T08:59:10.788Z,19.24
2022-10-18T09:03:31.728Z,19.32
2022-10-18T09:07:39.430Z,19.40
2022-10-18T09:12:26.483Z,19.46
2022-10-18T09:16:32.514Z,19.53
2022-10-18T09:20:43.371Z,19.60
2022-10-18T09:24:58.159Z,19.75
2022-10-18T09:29:10.194Z,19.80
2022-10-18T09:33:12.099Z,19.82
2022-10-18T09:37:17.030Z,19.87
2022-10-18T09:41:30.329Z,19.92
2022-10-18T09:45:39.741Z,19.92
2022-10-18T09:50:00.570Z,19.90
2022-10-18T09:54:17.533Z,20.04
2022-10-18T09:58:20.702Z,20.22
2022-10-18T10:02:23.903Z,20.35
2022-10-18T10:06:30.929Z,20.42
2022-10-18T10:10:33.564Z,20.50
2022-10-18T10:14:43.877Z,20.66
2022-10-18T10:18:53.682Z,20.66
2022-10-18T10:23:04.931Z,20.61
2022-10-18T10:27:15.093Z,20.66
2022-10-18T10:31:29.741Z,20.53
2022-10-18T10:35:54.015Z,20.53
2022-10-18T10:40:19.240Z,20.68
2022-10-18T10:44:27.966Z,20.78
2022-10-18T10:48:33.723Z,20.91
2022-10-18T10:52:35.383Z,20.98
2022-10-18T10:56:59.850Z,20.98
2022-10-18T11:01:17.952Z,21.00
2022-10-18T11:05:26.398Z,21.03
2022-10-18T11:09:32.068Z,20.94
2022-10-18T11:13:53.366Z,20.82
2022-10-18T11:18:25.514Z,20.75
2022-10-18T11:22:33.475Z,20.68
2022-10-18T11:27:11.182Z,20.64
2022-10-18T11:31:34.665Z,20.64
2022-10-18T11:35:46.165Z,20.73
2022-10-18T11:40:18.566Z,20.76
2022-10-18T11:44:31.164Z,20.76
2022-10-18T11:48:55.484Z,20.73
2022-10-18T11:53:28.241Z,20.71
2022-10-18T11:57:51.809Z,20.69
2022-10-18T12:02:28.428Z,20.66
2022-10-18T12:06:34.437Z,20.68
2022-10-18T12:10:46.081Z,20.71
2022-10-18T12:15:16.122Z,20.71
2022-10-18T12:19:25.287Z,20.76
2022-10-18T12:23:31.536Z,20.83
2022-10-18T12:27:56.701Z,20.88
2022-10-18T12:32:06.936Z,20.96
2022-10-18T12:36:30.043Z,21.06
2022-10-18T12:40:51.981Z,21.11
2022-10-18T12:45:06.511Z,21.12
2022-10-18T12:49:12.707Z,21.16
2022-10-18T12:53:25.745Z,21.13
2022-10-18T12:57:53.032Z,21.13
2022-10-18T13:01:54.604Z,21.03
2022-10-18T13:06:01.832Z,20.94
2022-10-18T13:10:09.825Z,20.83
2022-10-18T13:14:48.214Z,20.82
2022-10-18T13:19:22.488Z,20.85
2022-10-18T13:24:01.424Z,20.91
2022-10-18T13:28:24.154Z,20.96
2022-10-18T13:32:37.389Z,20.98
2022-10-18T13:36:39.932Z,21.01
2022-10-18T13:40:41.443Z,21.03
2022-10-18T13:44:44.737Z,20.98
2022-10-18T13:48:46.700Z,20.98
2022-10-18T13:53:14.703Z,20.94
2022-10-18T13:57:31.445Z,20.91
2022-10-18T14:01:44.543Z,20.87
2022-10-18T14:06:01.052Z,20.82
2022-10-18T14:10:05.013Z,20.79
2022-10-18T14:14:33.860Z,20.75
2022-10-18T14:18:37.852Z,20.72
2022-10-18T14:23:04.805Z,20.71
2022-10-18T14:27:12.856Z,20.68
2022-10-18T14:31:19.718Z,20.68
2022-10-18T14:35:33.280Z,20.66
2022-10-18T14:39:38.387Z,20.66
2022-10-18T14:43:40.187Z,20.63
2022-10-18T14:47:41.668Z,20.61
2022-10-18T14:51:46.350Z,20.61
2022-10-18T14:55:56.242Z,20.61
2022-10-18T15:00:08.751Z,20.60
2022-10-18T15:04:11.664Z,20.58
2022-10-18T15:08:13.408Z,20.56
2022-10-18T15:12:16.481Z,20.54
2022-10-18T15:16:19.621Z,20.50
2022-10-18T15:20:25.244Z,20.46
2022-10-18T15:24:26.721Z,20.40
2022-10-18T15:28:36.017Z,20.37
2022-10-18T15:32:37.817Z,20.31
2022-10-18T15:36:39.421Z,20.22
2022-10-18T15:40:42.361Z,20.13
2022-10-18T15:44:49.437Z,20.01
2022-10-18T15:48:51.020Z,19.89
2022-10-18T15:52:52.582Z,19.83
2022-10-18T15:56:54.671Z,19.75
2022-10-18T16:00:59.497Z,19.70
2022-10-18T16:05:02.134Z,19.62
2022-10-18T16:09:04.302Z,19.61
2022-10-18T16:13:05.832Z,19.57
2022-10-18T16:17:16.778Z,19.55
2022-10-18T16:21:26.143Z,19.52
2022-10-18T16:25:27.667Z,19.55
2022-10-18T16:29:32.036Z,19.49
2022-10-18T16:33:33.605Z,19.47
2022-10-18T16:37:35.239Z,19.45
2022-10-18T16:41:36.759Z,19.40
2022-10-18T16:45:38.340Z,19.34
2022-10-18T16:49:39.890Z,19.28
2022-10-18T16:53:41.619Z,19.24
2022-10-18T16:57:43.743Z,19.17
2022-10-18T17:01:45.363Z,19.09
2022-10-18T17:05:47.128Z,19.01
2022-10-18T17:09:48.662Z,18.97
2022-10-18T17:13:50.372Z,18.96
2022-10-18T17:17:51.935Z,18.91
2022-10-18T17:21:53.508Z,18.90
2022-10-18T17:26:05.398Z,18.89
2022-10-18T17:30:09.900Z,18.90
2022-10-18T17:34:11.442Z,18.89
2022-10-18T17:38:12.994Z,18.90
2022-10-18T17:42:14.574Z,18.91
2022-10-18T17:46:17.653Z,18.93
2022-10-18T17:50:19.223Z,18.90
2022-10-18T17:54:20.777Z,18.87
2022-10-18T17:58:22.337Z,18.82
2022-10-18T18:02:24.054Z,18.78
2022-10-18T18:06:31.274Z,18.78
2022-10-18T18:10:34.040Z,18.75
2022-10-18T18:14:35.566Z,18.72
2022-10-18T18:18:37.104Z,18.71
2022-10-18T18:22:41.796Z,18.71
2022-10-18T18:26:44.254Z,18.71
2022-10-18T18:30:45.783Z,18.69
2022-10-18T18:34:47.310Z,18.68
2022-10-18T18:38:53.036Z,18.66
2022-10-18T18:43:12.195Z,18.68
2022-10-18T18:47:21.455Z,18.65
2022-10-18T18:51:24.674Z,18.62
2022-10-18T18:55:26.209Z,18.62
2022-10-18T18:59:27.711Z,18.62
2022-10-18T19:03:29.241Z,18.60
2022-10-18T19:07:31.150Z,18.59
2022-10-18T19:11:35.650Z,18.57
2022-10-18T19:15:37.169Z,18.53
2022-10-18T19:19:40.795Z,18.53
2022-10-18T19:23:42.317Z,18.53
2022-10-18T19:27:43.904Z,18.50
2022-10-18T19:31:45.686Z,18.50
2022-10-18T19:35:47.234Z,18.49
2022-10-18T19:39:48.926Z,18.46
2022-10-18T19:43:51.811Z,18.39
2022-10-18T19:47:53.296Z,18.39
2022-10-18T19:51:55.574Z,18.39
2022-10-18T19:55:59.013Z,18.34
2022-10-18T20:00:01.025Z,18.35
2022-10-18T20:04:14.183Z,18.32
2022-10-18T20:08:15.687Z,18.28
2022-10-18T20:12:17.215Z,18.26
2022-10-18T20:16:26.951Z,18.28
2022-10-18T20:20:29.609Z,18.23
2022-10-18T20:24:31.162Z,18.21
2022-10-18T20:28:33.291Z,18.20
2022-10-18T20:32:35.493Z,18.21
2022-10-18T20:36:38.171Z,18.25
2022-10-18T20:40:39.717Z,18.25
2022-10-18T20:44:43.363Z,18.26
2022-10-18T20:48:44.967Z,18.29
2022-10-18T20:52:51.047Z,18.26
2022-10-18T20:56:52.660Z,18.21
2022-10-18T21:00:54.225Z,18.20
2022-10-18T21:04:55.773Z,18.16
2022-10-18T21:09:06.026Z,18.11
2022-10-18T21:13:07.530Z,18.07
2022-10-18T21:17:09.088Z,18.07
2022-10-18T21:25:20.335Z,18.09
2022-10-18T21:29:24.487Z,18.07
2022-10-18T21:33:26.199Z,18.02
2022-10-18T21:37:27.788Z,17.95
2022-10-18T21:41:30.813Z,17.94
2022-10-18T21:45:32.345Z,17.92
2022-10-18T21:49:35.118Z,17.87
2022-10-18T21:53:36.910Z,17.86
2022-10-18T21:57:38.423Z,17.83
2022-10-18T22:01:40.807Z,17.79
2022-10-18T22:05:42.388Z,17.74
2022-10-18T22:09:44.450Z,17.66
2022-10-18T22:13:46.878Z,17.60
2022-10-18T22:17:48.586Z,17.54
2022-10-18T22:21:50.521Z,17.43
2022-10-18T22:25:52.097Z,17.36
2022-10-18T22:29:53.580Z,17.30
2022-10-18T22:33:58.458Z,17.27
2022-10-18T22:38:00.022Z,17.22
2022-10-18T22:42:01.532Z,17.17
2022-10-18T22:46:08.849Z,17.05
2022-10-18T22:50:10.740Z,16.99
2022-10-18T22:54:12.408Z,16.96
2022-10-18T22:58:13.932Z,16.91
2022-10-18T23:02:15.427Z,16.88
2022-10-18T23:06:24.534Z,16.88
2022-10-18T23:10:26.026Z,16.91
2022-10-18T23:14:27.537Z,17.00
2022-10-18T23:18:29.626Z,17.05
2022-10-18T23:22:31.452Z,17.07
2022-10-18T23:26:33.257Z,17.06
2022-10-18T23:30:37.761Z,17.02
2022-10-18T23:34:39.281Z,16.98
2022-10-18T23:38:41.342Z,16.96
2022-10-18T23:42:42.883Z,16.91
2022-10-18T23:46:44.412Z,16.88
2022-10-18T23:50:46.110Z,16.88
2022-10-18T23:54:47.785Z,16.92
2022-10-18T23:58:49.290Z,16.95
